createdAt,value
2022-08-01T00:01:59.316Z,100685.09
2022-08-01T00:04:25.896Z,100682.81
2022-08-01T00:06:52.394Z,100682.13
2022-08-01T00:09:24.082Z,100681.63
2022-08-01T00:11:59.684Z,100680.06
2022-08-01T00:14:33.170Z,100687.91
2022-08-01T00:17:05.150Z,100687.59
2022-08-01T00:19:32.080Z,100689.44
2022-08-01T00:21:58.656Z,100696.53
2022-08-01T00:24:25.137Z,100695.66
2022-08-01T00:26:51.625Z,100696.06
2022-08-01T00:30:01.119Z,100690.00
2022-08-01T00:32:05.214Z,100694.44
2022-08-01T00:34:31.917Z,100694.53
2022-08-01T00:36:58.374Z,100689.19
2022-08-01T00:39:24.938Z,100689.28
2022-08-01T00:42:01.663Z,100696.91
2022-08-01T00:44:28.462Z,100696.34
2022-08-01T00:46:54.978Z,100700.22
2022-08-01T00:49:21.640Z,100697.00
2022-08-01T00:51:48.265Z,100693.69
2022-08-01T00:54:16.737Z,100697.81
2022-08-01T00:56:43.817Z,100687.91
2022-08-01T00:59:12.087Z,100692.53
2022-08-01T01:01:41.147Z,100698.75
2022-08-01T01:04:13.834Z,100697.63
2022-08-01T01:07:05.960Z,100690.81
2022-08-01T01:09:50.774Z,100696.78
2022-08-01T01:12:37.390Z,100690.25
2022-08-01T01:15:08.057Z,100690.88
2022-08-01T01:18:07.090Z,100690.97
2022-08-01T01:20:43.472Z,100686.44
2022-08-01T01:23:12.770Z,100688.53
2022-08-01T01:25:52.342Z,100681.25
2022-08-01T01:28:25.000Z,100686.25
2022-08-01T01:30:54.442Z,100688.44
2022-08-01T01:33:23.724Z,100678.34
2022-08-01T01:35:57.600Z,100685.25
2022-08-01T01:38:33.106Z,100678.34
2022-08-01T01:41:00.975Z,100673.81
2022-08-01T01:43:33.764Z,100673.91
2022-08-01T01:46:02.286Z,100680.84
2022-08-01T01:48:29.916Z,100677.09
2022-08-01T01:50:58.159Z,100677.31
2022-08-01T01:53:25.982Z,100689.97
2022-08-01T01:55:55.542Z,100684.75
2022-08-01T01:58:23.832Z,100680.09
2022-08-01T02:00:52.953Z,100691.56
2022-08-01T02:03:21.654Z,100688.84
2022-08-01T02:05:49.574Z,100685.69
2022-08-01T02:08:18.245Z,100680.72
2022-08-01T02:11:06.438Z,100683.63
2022-08-01T02:13:35.338Z,100690.16
2022-08-01T02:16:03.970Z,100687.22
2022-08-01T02:18:31.138Z,100685.81
2022-08-01T02:21:00.009Z,100679.16
2022-08-01T02:23:31.625Z,100680.81
2022-08-01T02:26:09.596Z,100684.50
2022-08-01T02:28:44.743Z,100687.28
2022-08-01T02:31:15.408Z,100679.53
2022-08-01T02:33:44.061Z,100683.00
2022-08-01T02:36:30.554Z,100685.97
2022-08-01T02:39:01.541Z,100689.56
2022-08-01T02:41:31.065Z,100703.38
2022-08-01T02:44:02.667Z,100696.63
2022-08-01T02:46:36.162Z,100707.47
2022-08-01T02:49:06.036Z,100709.28
2022-08-01T02:51:34.354Z,100704.59
2022-08-01T02:54:03.691Z,100703.72
2022-08-01T02:56:38.198Z,100697.94
2022-08-01T02:59:12.494Z,100702.03
2022-08-01T03:01:44.144Z,100696.88
2022-08-01T03:04:11.800Z,100705.50
2022-08-01T03:06:39.678Z,100702.56
2022-08-01T03:09:09.429Z,100698.63
2022-08-01T03:11:40.801Z,100701.78
2022-08-01T03:14:10.079Z,100703.25
2022-08-01T03:16:40.030Z,100712.53
2022-08-01T03:19:09.583Z,100710.47
2022-08-01T03:21:38.163Z,100716.72
2022-08-01T03:24:07.468Z,100713.28
2022-08-01T03:26:36.717Z,100714.44
2022-08-01T03:29:10.755Z,100713.72
2022-08-01T03:31:39.272Z,100712.91
2022-08-01T03:34:07.046Z,100710.22
2022-08-01T03:36:38.189Z,100713.72
2022-08-01T03:39:08.312Z,100708.16
2022-08-01T03:41:40.543Z,100718.84
2022-08-01T03:44:14.324Z,100721.09
2022-08-01T03:46:44.719Z,100724.16
2022-08-01T03:49:19.800Z,100721.59
2022-08-01T03:51:50.445Z,100721.66
2022-08-01T03:54:17.433Z,100717.19
2022-08-01T03:56:45.753Z,100721.19
2022-08-01T03:59:13.056Z,100722.13
2022-08-01T04:01:40.134Z,100721.38
2022-08-01T04:04:07.181Z,100721.97
2022-08-01T04:06:33.668Z,100716.72
2022-08-01T04:09:00.512Z,100719.13
2022-08-01T04:11:28.664Z,100724.50
2022-08-01T04:13:56.282Z,100726.50
2022-08-01T04:16:24.337Z,100724.75
2022-08-01T04:18:51.290Z,100723.59
2022-08-01T04:21:24.547Z,100726.16
2022-08-01T04:23:53.903Z,100729.47
2022-08-01T04:26:22.833Z,100743.06
2022-08-01T04:28:51.021Z,100739.97
2022-08-01T04:31:19.659Z,100746.50
2022-08-01T04:33:50.680Z,100740.97
2022-08-01T04:36:20.669Z,100743.66
2022-08-01T04:38:51.598Z,100749.31
2022-08-01T04:41:19.625Z,100747.28
2022-08-01T04:43:46.170Z,100747.22
2022-08-01T04:46:14.188Z,100751.28
2022-08-01T04:48:41.524Z,100749.78
2022-08-01T04:51:16.341Z,100752.28
2022-08-01T04:53:43.990Z,100754.19
2022-08-01T04:56:10.577Z,100760.97
2022-08-01T04:58:37.051Z,100760.50
2022-08-01T05:01:03.579Z,100758.44
2022-08-01T05:03:30.077Z,100757.44
2022-08-01T05:05:56.546Z,100751.44
2022-08-01T05:08:22.998Z,100757.00
2022-08-01T05:10:49.532Z,100752.88
2022-08-01T05:13:16.500Z,100753.25
2022-08-01T05:15:43.147Z,100753.94
2022-08-01T05:18:09.725Z,100749.03
2022-08-01T05:20:36.761Z,100746.19
2022-08-01T05:23:03.543Z,100754.25
2022-08-01T05:25:56.431Z,100743.09
2022-08-01T05:28:18.925Z,100751.16
2022-08-01T05:30:46.019Z,100745.75
2022-08-01T05:33:12.510Z,100742.63
2022-08-01T05:35:49.008Z,100754.00
2022-08-01T05:38:16.108Z,100759.38
2022-08-01T05:40:42.620Z,100748.88
2022-08-01T05:43:09.085Z,100755.16
2022-08-01T05:45:35.582Z,100760.56
2022-08-01T05:48:02.061Z,100757.56
2022-08-01T05:50:28.580Z,100758.53
2022-08-01T05:52:55.129Z,100760.06
2022-08-01T05:55:21.612Z,100758.19
2022-08-01T05:57:48.070Z,100767.56
2022-08-01T06:00:16.380Z,100764.31
2022-08-01T06:02:44.086Z,100772.78
2022-08-01T06:05:13.253Z,100771.03
2022-08-01T06:07:41.123Z,100769.53
2022-08-01T06:10:08.673Z,100778.06
2022-08-01T06:12:36.058Z,100773.81
2022-08-01T06:15:03.951Z,100776.16
2022-08-01T06:17:30.510Z,100769.69
2022-08-01T06:19:57.243Z,100778.84
2022-08-01T06:22:23.685Z,100782.59
2022-08-01T06:24:50.981Z,100783.03
2022-08-01T06:27:22.377Z,100788.72
2022-08-01T06:29:53.276Z,100782.69
2022-08-01T06:32:26.655Z,100783.78
2022-08-01T06:34:54.102Z,100777.50
2022-08-01T06:37:20.767Z,100779.72
2022-08-01T06:39:47.669Z,100778.88
2022-08-01T06:42:15.812Z,100784.34
2022-08-01T06:44:42.550Z,100778.28
2022-08-01T06:47:09.139Z,100778.00
2022-08-01T06:49:36.013Z,100780.59
2022-08-01T06:52:04.290Z,100781.06
2022-08-01T06:54:31.193Z,100781.06
2022-08-01T06:56:57.664Z,100783.56
2022-08-01T06:59:24.132Z,100788.50
2022-08-01T07:01:50.588Z,100779.22
2022-08-01T07:04:17.074Z,100785.19
2022-08-01T07:06:43.561Z,100781.03
2022-08-01T07:09:14.137Z,100782.84
2022-08-01T07:11:41.247Z,100778.22
2022-08-01T07:14:07.821Z,100775.19
2022-08-01T07:16:34.310Z,100775.59
2022-08-01T07:19:00.754Z,100780.19
2022-08-01T07:21:39.303Z,100779.47
2022-08-01T07:24:12.904Z,100776.16
2022-08-01T07:26:52.516Z,100775.81
2022-08-01T07:29:21.621Z,100771.72
2022-08-01T07:31:48.092Z,100776.00
2022-08-01T07:34:14.584Z,100769.09
2022-08-01T07:36:41.030Z,100773.75
2022-08-01T07:39:07.543Z,100776.63
2022-08-01T07:41:53.429Z,100775.84
2022-08-01T07:44:20.580Z,100777.94
2022-08-01T07:46:47.104Z,100771.06
2022-08-01T07:49:13.729Z,100771.28
2022-08-01T07:51:40.212Z,100769.50
2022-08-01T07:54:06.715Z,100766.97
2022-08-01T07:56:33.169Z,100771.47
2022-08-01T07:58:59.685Z,100775.16
2022-08-01T08:01:26.244Z,100767.94
2022-08-01T08:03:52.790Z,100771.44
2022-08-01T08:06:19.260Z,100764.59
2022-08-01T08:08:45.737Z,100757.53
2022-08-01T08:11:12.238Z,100761.19
2022-08-01T08:13:38.672Z,100758.09
2022-08-01T08:16:05.115Z,100759.91
2022-08-01T08:18:31.687Z,100763.00
2022-08-01T08:20:58.216Z,100766.84
2022-08-01T08:23:44.133Z,100761.59
2022-08-01T08:26:13.745Z,100762.53
2022-08-01T08:28:40.813Z,100760.00
2022-08-01T08:31:24.886Z,100763.06
2022-08-01T08:33:52.721Z,100768.63
2022-08-01T08:36:19.309Z,100762.88
2022-08-01T08:38:45.806Z,100770.13
2022-08-01T08:41:15.062Z,100765.06
2022-08-01T08:43:43.559Z,100764.38
2022-08-01T08:46:14.658Z,100762.22
2022-08-01T08:48:42.790Z,100765.94
2022-08-01T08:51:12.382Z,100768.50
2022-08-01T08:53:44.831Z,100766.81
2022-08-01T08:56:14.319Z,100764.16
2022-08-01T08:58:49.822Z,100765.13
2022-08-01T09:01:17.673Z,100763.53
2022-08-01T09:03:49.594Z,100760.16
2022-08-01T09:06:16.142Z,100765.69
2022-08-01T09:08:42.636Z,100769.44
2022-08-01T09:11:09.249Z,100767.88
2022-08-01T09:13:35.723Z,100761.00
2022-08-01T09:16:02.333Z,100759.50
2022-08-01T09:18:33.144Z,100764.94
2022-08-01T09:21:10.145Z,100759.72
2022-08-01T09:23:54.061Z,100758.91
2022-08-01T09:26:31.745Z,100759.19
2022-08-01T09:29:00.241Z,100752.16
2022-08-01T09:31:38.138Z,100761.09
2022-08-01T09:34:05.637Z,100755.09
2022-08-01T09:37:07.750Z,100754.25
2022-08-01T09:39:38.418Z,100746.44
2022-08-01T09:42:28.840Z,100744.56
2022-08-01T09:44:57.162Z,100737.50
2022-08-01T09:47:39.307Z,100738.47
2022-08-01T09:50:10.722Z,100735.81
2022-08-01T09:52:38.048Z,100742.13
2022-08-01T09:55:08.392Z,100742.00
2022-08-01T09:57:35.248Z,100739.53
2022-08-01T10:00:02.937Z,100741.53
2022-08-01T10:02:30.690Z,100736.25
2022-08-01T10:05:03.291Z,100737.16
2022-08-01T10:07:42.999Z,100734.44
2022-08-01T10:10:16.858Z,100741.59
2022-08-01T10:12:45.439Z,100729.97
2022-08-01T10:15:18.303Z,100729.13
2022-08-01T10:17:54.559Z,100734.53
2022-08-01T10:20:30.883Z,100729.19
2022-08-01T10:23:05.847Z,100722.97
2022-08-01T10:25:42.982Z,100720.31
2022-08-01T10:28:21.202Z,100720.41
2022-08-01T10:30:49.636Z,100716.81
2022-08-01T10:33:49.660Z,100715.97
2022-08-01T10:36:08.466Z,100707.19
2022-08-01T10:38:36.264Z,100710.75
2022-08-01T10:41:06.125Z,100707.22
2022-08-01T10:43:35.299Z,100701.91
2022-08-01T10:46:04.154Z,100701.88
2022-08-01T10:48:54.874Z,100693.91
2022-08-01T10:51:22.514Z,100693.91
2022-08-01T10:54:13.562Z,100685.94
2022-08-01T10:56:48.618Z,100688.59
2022-08-01T10:59:49.115Z,100682.44
2022-08-01T11:02:08.856Z,100676.19
2022-08-01T11:04:41.668Z,100676.19
2022-08-01T11:07:25.749Z,100675.31
2022-08-01T11:10:04.781Z,100667.34
2022-08-01T11:12:43.955Z,100666.41
2022-08-01T11:15:10.696Z,100666.44
2022-08-01T11:17:45.091Z,100652.25
2022-08-01T11:20:14.479Z,100654.91
2022-08-01T11:22:59.855Z,100653.97
2022-08-01T11:26:04.724Z,100650.41
2022-08-01T11:28:32.049Z,100645.97
2022-08-01T11:31:14.098Z,100641.53
2022-08-01T11:33:41.093Z,100633.53
2022-08-01T11:36:14.417Z,100633.47
2022-08-01T11:38:45.734Z,100623.66
2022-08-01T11:41:15.593Z,100620.09
2022-08-01T11:44:15.535Z,100618.38
2022-08-01T11:47:08.722Z,100612.16
2022-08-01T11:49:41.200Z,100616.59
2022-08-01T11:52:27.673Z,100608.53
2022-08-01T11:55:03.211Z,100603.31
2022-08-01T11:57:34.168Z,100597.97
2022-08-01T12:00:04.739Z,100598.78
2022-08-01T12:02:35.819Z,100595.09
2022-08-01T12:05:08.369Z,100588.78
2022-08-01T12:07:39.811Z,100590.66
2022-08-01T12:10:14.371Z,100580.88
2022-08-01T12:12:49.581Z,100585.31
2022-08-01T12:15:17.334Z,100576.53
2022-08-01T12:17:57.652Z,100575.63
2022-08-01T12:20:30.417Z,100572.06
2022-08-01T12:22:58.871Z,100564.88
2022-08-01T12:25:25.470Z,100572.81
2022-08-01T12:27:55.956Z,100565.59
2022-08-01T12:30:24.758Z,100559.59
2022-08-01T12:32:52.749Z,100564.22
2022-08-01T12:35:24.859Z,100557.91
2022-08-01T12:38:03.676Z,100560.59
2022-08-01T12:40:40.859Z,100557.94
2022-08-01T12:43:15.890Z,100556.19
2022-08-01T12:45:57.594Z,100544.53
2022-08-01T12:48:25.973Z,100540.13
2022-08-01T12:50:53.950Z,100532.94
2022-08-01T12:53:22.194Z,100537.31
2022-08-01T12:55:58.221Z,100535.34
2022-08-01T12:58:32.378Z,100531.75
2022-08-01T13:01:26.793Z,100532.63
2022-08-01T13:04:05.190Z,100519.25
2022-08-01T13:06:31.729Z,100520.22
2022-08-01T13:09:08.425Z,100513.03
2022-08-01T13:11:35.401Z,100516.81
2022-08-01T13:14:02.311Z,100512.31
2022-08-01T13:16:55.930Z,100512.19
2022-08-01T13:19:15.713Z,100507.81
2022-08-01T13:21:55.819Z,100503.31
2022-08-01T13:24:30.127Z,100501.53
2022-08-01T13:27:05.491Z,100500.53
2022-08-01T13:29:48.218Z,100495.28
2022-08-01T13:32:28.244Z,100498.78
2022-08-01T13:35:05.714Z,100501.28
2022-08-01T13:37:32.352Z,100493.34
2022-08-01T13:39:59.047Z,100498.72
2022-08-01T13:42:25.573Z,100493.44
2022-08-01T13:44:52.092Z,100498.72
2022-08-01T13:47:19.758Z,100501.41
2022-08-01T13:50:01.488Z,100489.91
2022-08-01T13:52:28.473Z,100488.16
2022-08-01T13:54:54.974Z,100483.69
2022-08-01T13:57:22.721Z,100485.44
2022-08-01T13:59:49.407Z,100487.22
2022-08-01T14:02:15.919Z,100485.44
2022-08-01T14:04:43.188Z,100488.97
2022-08-01T14:07:14.202Z,100478.19
2022-08-01T14:09:57.819Z,100484.44
2022-08-01T14:12:27.880Z,100477.38
2022-08-01T14:14:54.398Z,100483.59
2022-08-01T14:17:20.965Z,100478.25
2022-08-01T14:19:48.574Z,100471.25
2022-08-01T14:22:15.058Z,100471.22
2022-08-01T14:24:41.580Z,100465.00
2022-08-01T14:27:08.259Z,100471.22
2022-08-01T14:29:54.571Z,100465.88
2022-08-01T14:32:23.167Z,100458.88
2022-08-01T14:34:56.206Z,100460.66
2022-08-01T14:37:22.687Z,100456.06
2022-08-01T14:39:55.943Z,100463.06
2022-08-01T14:42:22.498Z,100467.66
2022-08-01T14:44:49.844Z,100460.59
2022-08-01T14:47:21.736Z,100461.50
2022-08-01T14:49:49.416Z,100464.16
2022-08-01T14:52:15.997Z,100454.38
2022-08-01T14:54:42.441Z,100455.28
2022-08-01T14:57:09.321Z,100454.50
2022-08-01T14:59:36.895Z,100446.53
2022-08-01T15:02:04.023Z,100440.31
2022-08-01T15:04:31.460Z,100438.41
2022-08-01T15:06:58.067Z,100444.53
2022-08-01T15:09:24.581Z,100433.84
2022-08-01T15:11:51.058Z,100430.25
2022-08-01T15:14:36.031Z,100434.63
2022-08-01T15:17:02.600Z,100430.22
2022-08-01T15:19:29.199Z,100425.78
2022-08-01T15:21:55.706Z,100430.22
2022-08-01T15:24:22.185Z,100427.53
2022-08-01T15:26:48.657Z,100429.38
2022-08-01T15:29:16.579Z,100421.44
2022-08-01T15:31:43.056Z,100428.56
2022-08-01T15:34:10.320Z,100417.84
2022-08-01T15:36:36.798Z,100425.84
2022-08-01T15:39:09.686Z,100421.44
2022-08-01T15:41:36.245Z,100424.06
2022-08-01T15:44:02.973Z,100424.94
2022-08-01T15:46:29.560Z,100422.25
2022-08-01T15:48:56.104Z,100423.09
2022-08-01T15:51:23.219Z,100425.75
2022-08-01T15:53:49.704Z,100426.69
2022-08-01T15:56:16.169Z,100430.22
2022-08-01T15:58:42.654Z,100418.81
2022-08-01T16:01:09.122Z,100424.25
2022-08-01T16:03:35.599Z,100415.34
2022-08-01T16:06:02.554Z,100417.13
2022-08-01T16:08:29.113Z,100410.94
2022-08-01T16:10:55.650Z,100405.56
2022-08-01T16:13:22.174Z,100401.00
2022-08-01T16:15:48.629Z,100393.00
2022-08-01T16:18:16.050Z,100393.13
2022-08-01T16:20:45.714Z,100388.75
2022-08-01T16:23:13.789Z,100386.88
2022-08-01T16:25:40.445Z,100384.22
2022-08-01T16:28:07.467Z,100378.97
2022-08-01T16:30:33.938Z,100378.16
2022-08-01T16:33:07.938Z,100375.47
2022-08-01T16:35:40.082Z,100377.28
2022-08-01T16:38:08.908Z,100372.81
2022-08-01T16:40:47.143Z,100361.28
2022-08-01T16:43:19.028Z,100355.06
2022-08-01T16:45:46.593Z,100356.84
2022-08-01T16:48:16.029Z,100358.66
2022-08-01T16:50:43.117Z,100369.31
2022-08-01T16:53:09.653Z,100366.72
2022-08-01T16:55:49.379Z,100366.75
2022-08-01T16:58:27.959Z,100365.84
2022-08-01T17:00:57.497Z,100359.59
2022-08-01T17:03:51.229Z,100362.19
2022-08-01T17:06:19.266Z,100360.44
2022-08-01T17:08:49.832Z,100365.78
2022-08-01T17:11:16.587Z,100361.47
2022-08-01T17:13:43.665Z,100360.66
2022-08-01T17:16:10.498Z,100358.03
2022-08-01T17:18:37.144Z,100358.94
2022-08-01T17:21:03.955Z,100355.38
2022-08-01T17:23:31.764Z,100361.56
2022-08-01T17:25:59.011Z,100358.03
2022-08-01T17:28:26.167Z,100362.50
2022-08-01T17:30:52.729Z,100361.53
2022-08-01T17:33:19.273Z,100359.81
2022-08-01T17:35:45.766Z,100364.34
2022-08-01T17:38:12.288Z,100362.63
2022-08-01T17:40:40.546Z,100366.28
2022-08-01T17:43:07.828Z,100373.41
2022-08-01T17:45:38.121Z,100376.13
2022-08-01T17:48:07.055Z,100377.03
2022-08-01T17:50:33.564Z,100381.47
2022-08-01T17:53:00.071Z,100381.47
2022-08-01T17:55:55.408Z,100377.97
2022-08-01T17:58:14.474Z,100379.78
2022-08-01T18:00:41.484Z,100384.22
2022-08-01T18:03:08.448Z,100385.09
2022-08-01T18:05:38.369Z,100395.75
2022-08-01T18:08:07.353Z,100388.69
2022-08-01T18:10:33.903Z,100395.81
2022-08-01T18:13:01.876Z,100397.59
2022-08-01T18:15:29.602Z,100397.63
2022-08-01T18:17:59.399Z,100396.75
2022-08-01T18:20:26.052Z,100401.22
2022-08-01T18:22:52.544Z,100400.31
2022-08-01T18:25:20.024Z,100395.91
2022-08-01T18:28:22.360Z,100395.91
2022-08-01T18:30:33.475Z,100396.78
2022-08-01T18:33:00.090Z,100396.84
2022-08-01T18:35:51.475Z,100395.91
2022-08-01T18:38:13.285Z,100408.25
2022-08-01T18:40:40.094Z,100413.50
2022-08-01T18:43:06.792Z,100419.63
2022-08-01T18:45:34.485Z,100424.03
2022-08-01T18:48:02.038Z,100423.06
2022-08-01T18:50:28.619Z,100426.56
2022-08-01T18:52:55.163Z,100426.25
2022-08-01T18:55:21.701Z,100421.50
2022-08-01T18:57:48.197Z,100429.38
2022-08-01T19:00:15.201Z,100432.97
2022-08-01T19:02:42.464Z,100437.38
2022-08-01T19:05:10.117Z,100442.66
2022-08-01T19:08:05.083Z,100442.69
2022-08-01T19:10:23.462Z,100446.22
2022-08-01T19:12:49.940Z,100448.00
2022-08-01T19:15:16.539Z,100448.00
2022-08-01T19:17:44.639Z,100447.13
2022-08-01T19:20:11.390Z,100451.34
2022-08-01T19:22:37.886Z,100453.13
2022-08-01T19:25:05.058Z,100459.31
2022-08-01T19:27:35.249Z,100463.75
2022-08-01T19:30:02.921Z,100469.00
2022-08-01T19:32:32.842Z,100469.94
2022-08-01T19:35:11.468Z,100462.84
2022-08-01T19:37:45.648Z,100469.00
2022-08-01T19:40:26.948Z,100468.09
2022-08-01T19:42:56.032Z,100471.63
2022-08-01T19:45:22.845Z,100479.63
2022-08-01T19:47:55.969Z,100479.59
2022-08-01T19:50:23.816Z,100477.84
2022-08-01T19:52:52.770Z,100481.25
2022-08-01T19:55:19.658Z,100479.41
2022-08-01T19:57:59.285Z,100489.13
2022-08-01T20:00:37.652Z,100501.44
2022-08-01T20:03:04.689Z,100498.84
2022-08-01T20:05:31.442Z,100501.47
2022-08-01T20:07:58.822Z,100493.50
2022-08-01T20:10:25.346Z,100494.31
2022-08-01T20:12:53.038Z,100490.75
2022-08-01T20:15:21.176Z,100494.25
2022-08-01T20:17:47.671Z,100503.94
2022-08-01T20:20:14.199Z,100497.84
2022-08-01T20:22:41.793Z,100503.19
2022-08-01T20:25:09.301Z,100496.19
2022-08-01T20:27:38.782Z,100495.28
2022-08-01T20:30:05.679Z,100492.59
2022-08-01T20:32:37.245Z,100490.78
2022-08-01T20:35:05.033Z,100492.59
2022-08-01T20:38:04.002Z,100494.31
2022-08-01T20:40:21.978Z,100502.16
2022-08-01T20:42:51.904Z,100507.38
2022-08-01T20:45:18.948Z,100495.84
2022-08-01T20:47:46.892Z,100494.94
2022-08-01T20:50:53.304Z,100492.25
2022-08-01T20:53:18.817Z,100497.56
2022-08-01T20:55:49.750Z,100503.84
2022-08-01T20:58:28.973Z,100504.75
2022-08-01T21:01:00.040Z,100504.75
2022-08-01T21:03:36.797Z,100503.84
2022-08-01T21:06:14.707Z,100504.63
2022-08-01T21:08:44.097Z,100501.09
2022-08-01T21:11:19.455Z,100498.38
2022-08-01T21:13:48.018Z,100501.75
2022-08-01T21:16:24.496Z,100503.44
2022-08-01T21:19:19.602Z,100506.06
2022-08-01T21:22:27.162Z,100497.38
2022-08-01T21:24:58.868Z,100498.28
2022-08-01T21:27:33.233Z,100505.22
2022-08-01T21:30:04.421Z,100504.25
2022-08-01T21:32:32.941Z,100511.38
2022-08-01T21:35:00.983Z,100508.75
2022-08-01T21:37:29.597Z,100506.13
2022-08-01T21:39:58.057Z,100509.81
2022-08-01T21:42:26.886Z,100509.88
2022-08-01T21:44:55.687Z,100513.44
2022-08-01T21:47:23.169Z,100506.41
2022-08-01T21:49:49.885Z,100510.81
2022-08-01T21:52:22.575Z,100510.91
2022-08-01T21:55:16.520Z,100510.81
2022-08-01T21:58:00.358Z,100517.69
2022-08-01T22:00:26.995Z,100515.81
2022-08-01T22:03:25.781Z,100522.88
2022-08-01T22:05:53.937Z,100514.03
2022-08-01T22:08:48.599Z,100520.25
2022-08-01T22:11:20.577Z,100511.34
2022-08-01T22:13:47.275Z,100507.78
2022-08-01T22:16:15.381Z,100516.59
2022-08-01T22:18:42.386Z,100511.88
2022-08-01T22:21:09.609Z,100513.25
2022-08-01T22:23:37.556Z,100512.13
2022-08-01T22:26:09.429Z,100512.16
2022-08-01T22:28:37.194Z,100503.38
2022-08-01T22:31:04.350Z,100513.94
2022-08-01T22:33:33.856Z,100500.72
2022-08-01T22:36:00.712Z,100510.41
2022-08-01T22:38:27.319Z,100508.41
2022-08-01T22:41:00.645Z,100504.84
2022-08-01T22:43:35.040Z,100503.97
2022-08-01T22:46:19.619Z,100497.91
2022-08-01T22:48:51.260Z,100502.31
2022-08-01T22:51:20.751Z,100515.59
2022-08-01T22:53:58.835Z,100524.53
2022-08-01T22:56:25.311Z,100525.28
2022-08-01T22:58:52.551Z,100525.25
2022-08-01T23:01:22.123Z,100516.59
2022-08-01T23:03:53.751Z,100518.31
2022-08-01T23:06:38.694Z,100524.16
2022-08-01T23:09:05.227Z,100513.13
2022-08-01T23:11:32.641Z,100514.72
2022-08-01T23:14:02.326Z,100508.34
2022-08-01T23:16:30.275Z,100510.03
2022-08-01T23:18:58.881Z,100510.72
2022-08-01T23:21:27.274Z,100515.16
2022-08-01T23:23:54.697Z,100514.38
2022-08-01T23:26:23.403Z,100506.53
2022-08-01T23:28:51.770Z,100513.50
2022-08-01T23:31:20.076Z,100513.38
2022-08-01T23:33:46.577Z,100511.44
2022-08-01T23:36:17.261Z,100513.81
2022-08-01T23:38:46.771Z,100505.44
2022-08-01T23:41:15.893Z,100516.88
2022-08-01T23:43:51.957Z,100516.22
2022-08-01T23:46:18.967Z,100521.56
2022-08-01T23:48:45.428Z,100514.59
2022-08-01T23:51:23.968Z,100520.78
2022-08-01T23:53:51.340Z,100522.59
2022-08-01T23:56:21.904Z,100526.88
2022-08-01T23:58:51.963Z,100524.81
